createdAt,value
2023-03-03T00:01:21.908Z,87.20
2023-03-03T00:03:52.957Z,89.30
2023-03-03T00:06:24.570Z,88.80
2023-03-03T00:08:56.079Z,92.50
2023-03-03T00:11:26.908Z,95.00
2023-03-03T00:14:00.925Z,88.10
2023-03-03T00:16:37.094Z,90.20
2023-03-03T00:19:16.275Z,88.60
2023-03-03T00:21:49.217Z,88.30
2023-03-03T00:24:23.363Z,82.10
2023-03-03T00:26:56.052Z,86.30
2023-03-03T00:29:41.018Z,83.30
2023-03-03T00:32:26.314Z,83.00
2023-03-03T00:35:02.802Z,78.20
2023-03-03T00:37:35.685Z,88.80
2023-03-03T00:40:24.963Z,86.70
2023-03-03T00:42:57.612Z,78.10
2023-03-03T00:45:35.896Z,83.40
2023-03-03T00:48:24.259Z,84.60
2023-03-03T00:50:56.562Z,95.20
2023-03-03T00:53:28.618Z,75.00
2023-03-03T00:55:59.745Z,74.10
2023-03-03T00:58:31.185Z,76.30
2023-03-03T01:01:02.372Z,70.90
2023-03-03T01:03:41.470Z,82.80
2023-03-03T01:06:13.211Z,72.50
2023-03-03T01:08:43.956Z,75.30
2023-03-03T01:11:17.800Z,79.70
2023-03-03T01:13:51.289Z,70.90
2023-03-03T01:16:22.628Z,74.50
2023-03-03T01:18:54.651Z,69.60
2023-03-03T01:21:26.035Z,64.40
2023-03-03T01:23:56.806Z,69.50
2023-03-03T01:26:27.638Z,72.90
2023-03-03T01:28:58.370Z,66.10
2023-03-03T01:31:29.801Z,63.00
2023-03-03T01:34:00.777Z,78.50
2023-03-03T01:36:31.815Z,64.80
2023-03-03T01:39:03.499Z,79.30
2023-03-03T01:41:34.819Z,64.10
2023-03-03T01:44:05.664Z,66.40
2023-03-03T01:46:53.016Z,67.90
2023-03-03T01:49:28.077Z,64.20
2023-03-03T01:52:02.502Z,69.10
2023-03-03T01:54:39.758Z,65.70
2023-03-03T01:57:17.085Z,64.00
2023-03-03T01:59:51.218Z,64.70
2023-03-03T02:02:23.182Z,59.40
2023-03-03T02:04:53.928Z,74.10
2023-03-03T02:07:27.138Z,62.60
2023-03-03T02:10:05.645Z,61.20
2023-03-03T02:12:39.842Z,67.40
2023-03-03T02:15:28.225Z,61.50
2023-03-03T02:18:02.460Z,60.50
2023-03-03T02:20:46.238Z,63.40
2023-03-03T02:23:23.653Z,64.40
2023-03-03T02:26:11.124Z,58.80
2023-03-03T02:28:43.983Z,60.60
2023-03-03T02:31:18.109Z,58.10
2023-03-03T02:33:51.608Z,66.40
2023-03-03T02:36:25.022Z,68.00
2023-03-03T02:39:03.969Z,56.20
2023-03-03T02:41:40.619Z,63.90
2023-03-03T02:44:16.032Z,60.00
2023-03-03T02:46:49.220Z,61.40
2023-03-03T02:49:24.003Z,57.40
2023-03-03T02:51:55.519Z,60.40
2023-03-03T02:54:28.408Z,62.40
2023-03-03T02:56:59.621Z,70.60
2023-03-03T02:59:31.988Z,61.60
2023-03-03T03:04:36.298Z,59.10
2023-03-03T03:07:08.741Z,67.00
2023-03-03T03:09:40.534Z,60.30
2023-03-03T03:12:12.377Z,62.30
2023-03-03T03:14:43.242Z,67.30
2023-03-03T03:17:14.210Z,63.40
2023-03-03T03:19:47.385Z,71.10
2023-03-03T03:22:19.709Z,83.10
2023-03-03T03:24:51.018Z,68.20
2023-03-03T03:27:23.570Z,71.60
2023-03-03T03:29:54.860Z,70.40
2023-03-03T03:32:26.419Z,72.00
2023-03-03T03:34:57.231Z,73.90
2023-03-03T03:37:30.711Z,65.60
2023-03-03T03:40:01.913Z,67.50
2023-03-03T03:42:34.033Z,67.70
2023-03-03T03:45:05.243Z,68.10
2023-03-03T03:47:37.172Z,73.20
2023-03-03T03:50:10.335Z,65.90
2023-03-03T03:52:43.687Z,62.90
2023-03-03T03:55:15.208Z,67.80
2023-03-03T03:57:46.374Z,71.40
2023-03-03T04:00:18.472Z,67.70
2023-03-03T04:02:53.995Z,67.50
2023-03-03T04:05:25.665Z,70.70
2023-03-03T04:07:57.989Z,78.60
2023-03-03T04:10:28.945Z,62.50
2023-03-03T04:13:00.134Z,69.30
2023-03-03T04:15:31.899Z,70.50
2023-03-03T04:18:03.580Z,70.80
2023-03-03T04:20:34.727Z,73.70
2023-03-03T04:23:05.687Z,79.10
2023-03-03T04:25:36.504Z,69.10
2023-03-03T04:28:14.995Z,72.80
2023-03-03T04:30:46.147Z,68.70
2023-03-03T04:33:18.166Z,77.80
2023-03-03T04:35:50.035Z,76.40
2023-03-03T04:38:21.187Z,78.10
2023-03-03T04:40:52.374Z,71.40
2023-03-03T04:43:23.387Z,75.60
2023-03-03T04:45:54.311Z,74.40
2023-03-03T04:48:25.461Z,74.20
2023-03-03T04:50:56.626Z,73.50
2023-03-03T04:53:27.507Z,78.80
2023-03-03T04:55:58.291Z,87.80
2023-03-03T04:58:29.499Z,75.30
2023-03-03T05:01:00.698Z,81.30
2023-03-03T05:03:32.657Z,78.70
2023-03-03T05:06:03.509Z,85.60
2023-03-03T05:08:34.259Z,76.00
2023-03-03T05:11:05.859Z,82.10
2023-03-03T05:13:36.615Z,84.30
2023-03-03T05:16:08.593Z,84.80
2023-03-03T05:18:39.524Z,84.20
2023-03-03T05:21:10.435Z,91.30
2023-03-03T05:23:41.398Z,88.20
2023-03-03T05:26:12.038Z,76.20
2023-03-03T05:28:43.142Z,88.40
2023-03-03T05:31:13.915Z,79.40
2023-03-03T05:33:44.580Z,89.80
2023-03-03T05:36:15.261Z,88.80
2023-03-03T05:38:46.001Z,82.80
2023-03-03T05:41:16.712Z,97.00
2023-03-03T05:43:47.625Z,97.80
2023-03-03T05:46:18.732Z,95.40
2023-03-03T05:48:49.548Z,106.40
2023-03-03T05:51:20.246Z,96.00
2023-03-03T05:53:50.950Z,100.10
2023-03-03T05:56:21.672Z,108.90
2023-03-03T05:58:52.478Z,104.40
2023-03-03T06:01:23.185Z,99.90
2023-03-03T06:03:54.176Z,101.40
2023-03-03T06:06:25.195Z,99.60
2023-03-03T06:08:57.268Z,99.30
2023-03-03T06:11:28.096Z,101.10
2023-03-03T06:13:59.251Z,95.70
2023-03-03T06:16:30.216Z,105.90
2023-03-03T06:19:01.471Z,115.20
2023-03-03T06:21:32.290Z,117.30
2023-03-03T06:24:03.005Z,121.70
2023-03-03T06:26:34.159Z,108.00
2023-03-03T06:29:04.916Z,105.80
2023-03-03T06:31:35.829Z,106.50
2023-03-03T06:34:06.698Z,102.60
2023-03-03T06:36:37.563Z,96.90
2023-03-03T06:39:08.719Z,89.30
2023-03-03T06:41:40.859Z,90.30
2023-03-03T06:44:13.005Z,84.70
2023-03-03T06:46:43.852Z,90.30
2023-03-03T06:49:14.554Z,92.50
2023-03-03T06:51:46.550Z,90.20
2023-03-03T06:54:19.944Z,83.00
2023-03-03T06:56:55.077Z,83.30
2023-03-03T06:59:28.155Z,73.50
2023-03-03T07:02:02.813Z,69.20
2023-03-03T07:04:37.111Z,78.20
2023-03-03T07:07:21.433Z,74.70
2023-03-03T07:09:54.789Z,61.80
2023-03-03T07:12:27.838Z,73.10
2023-03-03T07:15:16.108Z,60.00
2023-03-03T07:17:51.128Z,57.50
2023-03-03T07:22:54.781Z,43.90
2023-03-03T07:25:32.057Z,60.70
2023-03-03T07:28:20.464Z,59.70
2023-03-03T07:30:52.003Z,64.40
2023-03-03T07:33:28.341Z,67.70
2023-03-03T07:36:01.234Z,65.20
2023-03-03T07:38:41.992Z,70.50
2023-03-03T07:41:21.010Z,70.20
2023-03-03T07:43:55.757Z,61.00
2023-03-03T07:46:44.807Z,62.20
2023-03-03T07:49:25.578Z,59.00
2023-03-03T07:51:58.628Z,62.20
2023-03-03T07:54:40.556Z,73.90
2023-03-03T07:57:23.683Z,60.10
2023-03-03T08:00:02.124Z,63.00
2023-03-03T08:02:48.615Z,67.30
2023-03-03T08:05:35.967Z,60.90
2023-03-03T08:08:29.449Z,57.90
2023-03-03T08:11:01.538Z,61.10
2023-03-03T08:13:40.516Z,58.20
2023-03-03T08:16:31.681Z,58.30
2023-03-03T08:19:06.120Z,64.60
2023-03-03T08:21:38.812Z,70.00
2023-03-03T08:24:10.281Z,68.20
2023-03-03T08:26:41.608Z,60.00
2023-03-03T08:29:13.326Z,53.20
2023-03-03T08:31:44.748Z,53.60
2023-03-03T08:34:15.887Z,48.30
2023-03-03T08:36:47.543Z,56.80
2023-03-03T08:39:18.694Z,59.80
2023-03-03T08:41:49.732Z,63.60
2023-03-03T08:44:30.117Z,60.20
2023-03-03T08:47:01.367Z,56.90
2023-03-03T08:49:33.088Z,69.90
2023-03-03T08:52:04.978Z,66.20
2023-03-03T08:54:36.937Z,64.50
2023-03-03T08:57:08.116Z,53.20
2023-03-03T08:59:40.778Z,54.30
2023-03-03T09:02:12.002Z,57.60
2023-03-03T09:04:42.955Z,53.30
2023-03-03T09:07:13.845Z,51.00
2023-03-03T09:09:46.341Z,50.40
2023-03-03T09:12:20.255Z,57.20
2023-03-03T09:14:52.269Z,55.50
2023-03-03T09:17:28.283Z,46.20
2023-03-03T09:20:04.361Z,39.90
2023-03-03T09:22:39.675Z,49.80
2023-03-03T09:25:21.670Z,45.90
2023-03-03T09:27:57.714Z,43.50
2023-03-03T09:30:40.430Z,48.20
2023-03-03T09:33:26.235Z,46.30
2023-03-03T09:36:04.574Z,47.10
2023-03-03T09:38:41.513Z,50.90
2023-03-03T09:41:32.464Z,51.50
2023-03-03T09:44:26.588Z,52.70
2023-03-03T09:47:15.301Z,43.90
2023-03-03T09:49:58.536Z,44.30
2023-03-03T09:52:39.499Z,43.90
2023-03-03T09:55:25.697Z,42.80
2023-03-03T09:58:12.134Z,50.00
2023-03-03T10:00:56.585Z,49.40
2023-03-03T10:03:55.443Z,42.60
2023-03-03T10:06:30.142Z,52.80
2023-03-03T10:09:11.710Z,47.20
2023-03-03T10:11:47.745Z,47.00
2023-03-03T10:14:50.533Z,41.40
2023-03-03T10:17:29.650Z,42.80
2023-03-03T10:20:15.081Z,41.30
2023-03-03T10:22:54.597Z,37.40
2023-03-03T10:25:36.210Z,43.30
2023-03-03T10:28:36.791Z,45.40
2023-03-03T10:31:18.546Z,48.70
2023-03-03T10:34:00.735Z,43.10
2023-03-03T10:36:47.800Z,49.10
2023-03-03T10:39:39.876Z,41.50
2023-03-03T10:42:45.622Z,44.20
2023-03-03T10:45:45.699Z,37.90
2023-03-03T10:48:31.688Z,35.90
2023-03-03T10:51:17.532Z,35.20
2023-03-03T10:54:04.258Z,40.80
2023-03-03T10:56:53.359Z,38.80
2023-03-03T10:59:41.313Z,37.10
2023-03-03T11:02:22.462Z,42.40
2023-03-03T11:05:06.867Z,37.90
2023-03-03T11:07:42.303Z,36.10
2023-03-03T11:10:25.723Z,37.70
2023-03-03T11:13:11.521Z,42.00
2023-03-03T11:15:51.832Z,41.90
2023-03-03T11:18:43.591Z,43.90
2023-03-03T11:21:24.385Z,57.40
2023-03-03T11:24:11.936Z,50.20
2023-03-03T11:26:58.683Z,42.90
2023-03-03T11:29:45.369Z,36.90
2023-03-03T11:32:28.587Z,42.70
2023-03-03T11:35:09.371Z,43.20
2023-03-03T11:37:46.997Z,39.40
2023-03-03T11:40:23.454Z,39.70
2023-03-03T11:43:05.106Z,42.40
2023-03-03T11:45:44.985Z,46.60
2023-03-03T11:48:22.448Z,44.80
2023-03-03T11:51:00.213Z,44.30
2023-03-03T11:53:46.376Z,43.20
2023-03-03T11:56:26.100Z,38.70
2023-03-03T11:59:15.253Z,48.10
2023-03-03T12:01:54.275Z,41.00
2023-03-03T12:04:34.276Z,51.10
2023-03-03T12:07:21.689Z,39.20
2023-03-03T12:10:04.068Z,45.90
2023-03-03T12:12:42.193Z,38.80
2023-03-03T12:15:28.895Z,47.70
2023-03-03T12:18:11.350Z,39.30
2023-03-03T12:20:48.990Z,41.70
2023-03-03T12:23:48.202Z,44.70
2023-03-03T12:26:22.245Z,38.70
2023-03-03T12:28:56.534Z,32.50
2023-03-03T12:31:38.805Z,33.40
2023-03-03T12:34:18.962Z,39.80
2023-03-03T12:37:10.914Z,35.70
2023-03-03T12:39:53.210Z,32.50
2023-03-03T12:42:35.080Z,43.00
2023-03-03T12:45:20.409Z,41.80
2023-03-03T12:47:57.907Z,40.40
2023-03-03T12:50:44.875Z,42.00
2023-03-03T12:53:32.378Z,35.80
2023-03-03T12:56:08.097Z,36.60
2023-03-03T12:58:51.416Z,38.20
2023-03-03T13:01:40.135Z,40.10
2023-03-03T13:04:18.442Z,36.50
2023-03-03T13:06:55.012Z,40.10
2023-03-03T13:09:41.628Z,38.70
2023-03-03T13:12:29.797Z,39.80
2023-03-03T13:15:12.627Z,34.10
2023-03-03T13:20:31.941Z,38.90
2023-03-03T13:23:09.816Z,38.20
2023-03-03T13:25:51.761Z,44.00
2023-03-03T13:28:31.877Z,42.00
2023-03-03T13:31:10.162Z,37.90
2023-03-03T13:33:49.026Z,40.30
2023-03-03T13:36:21.237Z,43.60
2023-03-03T13:38:56.925Z,40.50
2023-03-03T13:41:34.940Z,41.90
2023-03-03T13:44:12.356Z,48.40
2023-03-03T13:46:50.633Z,37.20
2023-03-03T13:49:34.838Z,47.30
2023-03-03T13:52:10.824Z,40.30
2023-03-03T13:54:53.035Z,40.70
2023-03-03T13:57:37.619Z,44.30
2023-03-03T14:00:22.720Z,45.70
2023-03-03T14:03:11.597Z,51.40
2023-03-03T14:05:46.358Z,38.80
2023-03-03T14:08:27.350Z,36.60
2023-03-03T14:11:11.548Z,38.90
2023-03-03T14:13:52.723Z,41.60
2023-03-03T14:16:38.719Z,39.80
2023-03-03T14:19:17.429Z,38.90
2023-03-03T14:22:00.030Z,38.10
2023-03-03T14:24:31.184Z,37.60
2023-03-03T14:27:22.716Z,39.30
2023-03-03T14:29:54.626Z,40.90
2023-03-03T14:32:43.198Z,42.60
2023-03-03T14:35:22.549Z,43.80
2023-03-03T14:37:53.511Z,32.80
2023-03-03T14:40:32.534Z,41.00
2023-03-03T14:43:08.014Z,38.30
2023-03-03T14:45:41.046Z,37.30
2023-03-03T14:48:19.234Z,31.40
2023-03-03T14:50:54.696Z,39.30
2023-03-03T14:53:35.466Z,34.30
2023-03-03T14:56:25.187Z,31.60
2023-03-03T14:59:13.956Z,32.90
2023-03-03T15:01:44.848Z,34.20
2023-03-03T15:04:28.729Z,36.60
2023-03-03T15:07:00.532Z,34.90
2023-03-03T15:09:38.454Z,33.30
2023-03-03T15:12:23.814Z,40.80
2023-03-03T15:15:03.986Z,33.70
2023-03-03T15:17:39.573Z,32.30
2023-03-03T15:20:25.917Z,31.70
2023-03-03T15:23:06.345Z,29.80
2023-03-03T15:25:50.899Z,29.30
2023-03-03T15:28:36.838Z,28.40
2023-03-03T15:31:16.053Z,26.30
2023-03-03T15:33:58.041Z,28.40
2023-03-03T15:36:39.067Z,23.70
2023-03-03T15:39:22.320Z,24.70
2023-03-03T15:42:06.034Z,26.60
2023-03-03T15:44:53.686Z,21.10
2023-03-03T15:47:48.787Z,23.50
2023-03-03T15:50:33.973Z,26.40
2023-03-03T15:53:18.716Z,26.80
2023-03-03T15:56:05.808Z,25.60
2023-03-03T15:58:52.770Z,21.00
2023-03-03T16:01:28.644Z,28.80
2023-03-03T16:04:05.464Z,22.20
2023-03-03T16:06:48.300Z,27.20
2023-03-03T16:09:33.346Z,27.80
2023-03-03T16:12:14.781Z,22.40
2023-03-03T16:14:57.921Z,21.60
2023-03-03T16:17:35.783Z,27.60
2023-03-03T16:20:20.784Z,26.70
2023-03-03T16:23:15.705Z,24.10
2023-03-03T16:25:59.749Z,28.70
2023-03-03T16:28:44.457Z,29.90
2023-03-03T16:31:22.471Z,28.30
2023-03-03T16:34:04.203Z,27.30
2023-03-03T16:36:48.430Z,24.30
2023-03-03T16:39:30.101Z,33.30
2023-03-03T16:42:10.451Z,30.60
2023-03-03T16:44:50.490Z,36.60
2023-03-03T16:47:37.503Z,33.00
2023-03-03T16:50:26.424Z,36.20
2023-03-03T16:53:10.870Z,39.80
2023-03-03T16:55:52.065Z,36.50
2023-03-03T16:58:34.351Z,40.00
2023-03-03T17:01:16.065Z,35.30
2023-03-03T17:04:00.455Z,32.50
2023-03-03T17:06:50.380Z,35.20
2023-03-03T17:09:39.667Z,36.60
2023-03-03T17:12:36.969Z,36.70
2023-03-03T17:15:30.928Z,37.30
2023-03-03T17:18:12.510Z,36.80
2023-03-03T17:20:52.809Z,33.60
2023-03-03T17:23:53.773Z,40.70
2023-03-03T17:26:38.554Z,34.10
2023-03-03T17:29:25.825Z,42.60
2023-03-03T17:32:08.611Z,31.60
2023-03-03T17:34:50.929Z,34.20
2023-03-03T17:37:33.803Z,32.40
2023-03-03T17:40:19.788Z,31.10
2023-03-03T17:42:58.456Z,33.30
2023-03-03T17:45:36.470Z,32.80
2023-03-03T17:48:42.043Z,41.10
2023-03-03T17:51:41.594Z,35.70
2023-03-03T17:54:41.937Z,28.90
2023-03-03T17:57:30.185Z,36.00
2023-03-03T18:00:19.256Z,34.50
2023-03-03T18:03:18.471Z,33.50
2023-03-03T18:06:19.329Z,35.10
2023-03-03T18:09:20.037Z,29.60
2023-03-03T18:12:11.842Z,34.20
2023-03-03T18:15:18.455Z,35.20
2023-03-03T18:18:05.012Z,37.80
2023-03-03T18:21:01.197Z,31.90
2023-03-03T18:23:42.219Z,32.00
2023-03-03T18:26:39.419Z,33.30
2023-03-03T18:29:21.541Z,33.80
2023-03-03T18:32:04.735Z,38.00
2023-03-03T18:34:40.494Z,38.80
2023-03-03T18:37:45.666Z,39.60
2023-03-03T18:40:30.833Z,41.20
2023-03-03T18:43:40.617Z,38.40
2023-03-03T18:46:33.529Z,35.70
2023-03-03T18:49:07.402Z,47.30
2023-03-03T18:52:14.980Z,40.40
2023-03-03T18:55:00.040Z,36.60
2023-03-03T18:57:31.664Z,37.30
2023-03-03T19:00:15.775Z,44.50
2023-03-03T19:02:55.571Z,37.90
2023-03-03T19:05:30.870Z,40.30
2023-03-03T19:10:53.183Z,45.30
2023-03-03T19:13:48.079Z,34.10
2023-03-03T19:16:36.849Z,35.60
2023-03-03T19:19:14.905Z,38.00
2023-03-03T19:21:51.251Z,39.40
2023-03-03T19:24:36.019Z,35.20
2023-03-03T19:27:26.794Z,30.40
2023-03-03T19:30:22.510Z,35.20
2023-03-03T19:33:18.650Z,39.80
2023-03-03T19:36:00.307Z,34.70
2023-03-03T19:38:40.181Z,44.50
2023-03-03T19:41:28.955Z,44.20
2023-03-03T19:44:14.174Z,39.70
2023-03-03T19:47:00.138Z,46.30
2023-03-03T19:49:59.850Z,44.40
2023-03-03T19:52:37.931Z,38.20
2023-03-03T19:55:28.356Z,34.10
2023-03-03T19:58:14.367Z,38.30
2023-03-03T20:00:48.379Z,39.70
2023-03-03T20:03:49.312Z,41.50
2023-03-03T20:06:33.424Z,37.30
2023-03-03T20:09:09.732Z,39.70
2023-03-03T20:11:59.300Z,34.70
2023-03-03T20:14:46.035Z,34.30
2023-03-03T20:17:33.210Z,37.00
2023-03-03T20:20:10.519Z,36.40
2023-03-03T20:22:49.781Z,37.20
2023-03-03T20:25:30.909Z,38.20
2023-03-03T20:28:21.588Z,44.30
2023-03-03T20:31:05.996Z,44.00
2023-03-03T20:33:50.964Z,42.30
2023-03-03T20:36:30.221Z,37.00
2023-03-03T20:39:09.018Z,33.30
2023-03-03T20:41:58.805Z,39.10
2023-03-03T20:44:44.135Z,42.60
2023-03-03T20:47:27.400Z,36.80
2023-03-03T20:50:15.491Z,36.80
2023-03-03T20:52:59.322Z,38.60
2023-03-03T20:55:46.456Z,38.20
2023-03-03T20:58:25.802Z,40.30
2023-03-03T21:01:04.367Z,34.20
2023-03-03T21:03:37.751Z,43.20
2023-03-03T21:06:15.231Z,49.60
2023-03-03T21:08:53.694Z,43.20
2023-03-03T21:11:41.145Z,49.20
2023-03-03T21:14:21.319Z,50.70
2023-03-03T21:16:54.421Z,47.70
2023-03-03T21:19:31.505Z,45.30
2023-03-03T21:22:04.576Z,51.30
2023-03-03T21:24:53.610Z,46.60
2023-03-03T21:27:30.449Z,49.10
2023-03-03T21:30:12.329Z,44.90
2023-03-03T21:32:49.201Z,39.50
2023-03-03T21:35:22.626Z,48.10
2023-03-03T21:37:55.307Z,44.60
2023-03-03T21:40:29.212Z,41.80
2023-03-03T21:43:01.393Z,48.00
2023-03-03T21:45:33.015Z,42.70
2023-03-03T21:48:07.410Z,48.00
2023-03-03T21:50:41.336Z,40.50
2023-03-03T21:53:12.891Z,49.90
2023-03-03T21:55:48.774Z,43.60
2023-03-03T21:58:20.625Z,45.70
2023-03-03T22:00:51.825Z,47.00
2023-03-03T22:03:26.121Z,42.80
2023-03-03T22:05:57.862Z,54.90
2023-03-03T22:08:32.443Z,50.30
2023-03-03T22:11:03.972Z,46.20
2023-03-03T22:13:35.266Z,48.40
2023-03-03T22:16:07.837Z,48.40
2023-03-03T22:18:39.091Z,43.70
2023-03-03T22:21:10.111Z,42.80
2023-03-03T22:23:41.325Z,45.90
2023-03-03T22:26:12.473Z,44.40
2023-03-03T22:28:44.493Z,47.80
2023-03-03T22:31:15.817Z,44.20
2023-03-03T22:33:47.440Z,43.10
2023-03-03T22:36:19.590Z,42.00
2023-03-03T22:38:51.225Z,44.10
2023-03-03T22:41:22.503Z,42.30
2023-03-03T22:43:56.698Z,46.30
2023-03-03T22:46:27.859Z,48.80
2023-03-03T22:48:59.033Z,49.70
2023-03-03T22:51:30.144Z,46.40
2023-03-03T22:54:01.407Z,47.30
2023-03-03T22:56:32.398Z,48.10
2023-03-03T22:59:03.717Z,49.80
2023-03-03T23:01:35.069Z,43.20
2023-03-03T23:04:06.491Z,42.70
2023-03-03T23:06:37.442Z,38.40
2023-03-03T23:09:08.892Z,42.70
2023-03-03T23:11:39.944Z,40.30
2023-03-03T23:14:11.165Z,32.50
2023-03-03T23:16:42.153Z,33.30
2023-03-03T23:19:13.142Z,34.80
2023-03-03T23:21:44.116Z,35.00
2023-03-03T23:24:15.186Z,33.40
2023-03-03T23:26:46.373Z,46.60
2023-03-03T23:29:17.389Z,33.30
2023-03-03T23:31:48.378Z,35.30
2023-03-03T23:34:19.457Z,32.80
2023-03-03T23:36:50.437Z,31.70
2023-03-03T23:39:21.682Z,30.70
2023-03-03T23:41:52.588Z,36.10
2023-03-03T23:44:23.706Z,33.20
2023-03-03T23:46:54.742Z,30.40
2023-03-03T23:49:25.751Z,34.40
2023-03-03T23:51:56.823Z,32.70
2023-03-03T23:54:28.056Z,37.20
2023-03-03T23:56:59.464Z,34.10
2023-03-03T23:59:30.421Z,31.40
